Queen Of Burnaby — VCVV — position and weather

sailwx.info

Track history (hours):
 
Tides and Currents Weather Stations Pressure Air Temp Water Temp Dewpoint Dewpoint Depression Visibility Wind Speed Wind Dir Waves Ship Positions

Queen Of Burnaby

Last reported at 2017-Feb-26 07:29 UTC. Time now 2017-Feb-26 07:39 UTC.
Position N 49°44' W 124°55'.

Length 130 m; draft 4 m.

MMSI: 316001246.

Date/timePositionNaut miles runAvg speedWind from/ knotsBaromVisibWave heightAir tempDewpointWater temp
2017-Feb-26 07:29N 49°44' W 124°55'0 0.0
2017-Feb-26 06:29N 49°44' W 124°55'5 5.1
2017-Feb-26 05:33N 49°46' W 124°49'1111.5
2017-Feb-26 04:33N 49°50' W 124°32'9 8.5
2017-Feb-26 03:33N 49°47' W 124°44'8 7.6
2017-Feb-26 02:33N 49°44' W 124°55'0 0.0
2017-Feb-26 01:33N 49°44' W 124°55'0 0.0
2017-Feb-25 23:27N 49°44' W 124°55'0 0.0
2017-Feb-25 22:33N 49°44' W 124°55'0 0.0
2017-Feb-25 21:30N 49°44' W 124°55'7 7.7
2017-Feb-25 20:34N 49°47' W 124°45'9 8.8
2017-Feb-25 19:32N 49°50' W 124°32'1111.5
2017-Feb-25 18:33N 49°46' W 124°48'5 4.7
2017-Feb-25 17:30N 49°44' W 124°55'1111.3
2017-Feb-25 16:33N 49°48' W 124°40'5 4.7
2017-Feb-25 15:33N 49°50' W 124°33'1413.7
2017-Feb-25 14:33N 49°45' W 124°53'2 1.9
2017-Feb-25 13:33N 49°44' W 124°55'0 0.0
2017-Feb-25 12:33N 49°44' W 124°55'0 0.0
2017-Feb-25 11:33N 49°44' W 124°55'0 0.0
2017-Feb-25 10:30N 49°44' W 124°55'0 0.0
2017-Feb-25 09:33N 49°44' W 124°55'0 0.0
2017-Feb-25 08:33N 49°44' W 124°55'0 0.0
2017-Feb-25 07:33N 49°44' W 124°55'0 0.0
2017-Feb-25 06:30N 49°44' W 124°55'6 5.8
2017-Feb-25 05:33N 49°46' W 124°48'1110.7
2017-Feb-25 04:33N 49°50' W 124°32'1313.3
2017-Feb-25 03:33N 49°46' W 124°51'3 2.9
2017-Feb-25 02:33N 49°44' W 124°55'1312.7
2017-Feb-25 01:33N 49°49' W 124°37'3 2.9
2017-Feb-25 00:33N 49°50' W 124°33'1312.7
2017-Feb-24 23:33N 49°46' W 124°52'3 2.6
2017-Feb-24 22:29N 49°44' W 124°55'0 0.0
2017-Feb-24 21:32N 49°44' W 124°55'7 7.4
2017-Feb-24 20:33N 49°47' W 124°45'9 8.9
2017-Feb-24 19:33N 49°50' W 124°32'1010.5
2017-Feb-24 18:33N 49°47' W 124°47'6 5.8
2017-Feb-24 17:33N 49°44' W 124°55'1111.2
2017-Feb-24 16:33N 49°48' W 124°39'4 4.4
2017-Feb-24 15:33N 49°50' W 124°33'1413.9
2017-Feb-24 14:33N 49°45' W 124°53'2 1.5
2017-Feb-24 13:33N 49°44' W 124°55'0 0.0
2017-Feb-24 12:33N 49°44' W 124°55'0 0.0
2017-Feb-24 11:33N 49°44' W 124°55'0 0.0
2017-Feb-24 10:33N 49°44' W 124°55'0 0.0
2017-Feb-24 09:30N 49°44' W 124°55'0 0.0
2017-Feb-24 08:33N 49°44' W 124°55'0 0.0
2017-Feb-24 07:33N 49°44' W 124°55'0 0.0
2017-Feb-24 06:30N 49°44' W 124°55'5 5.7
2017-Feb-24 05:33N 49°46' W 124°48'1110.9
2017-Feb-24 04:33N 49°50' W 124°32'1313.3
2017-Feb-24 03:33N 49°45' W 124°51'3 2.9
2017-Feb-24 02:33N 49°44' W 124°55'1212.2
2017-Feb-24 01:33N 49°49' W 124°38'4 4.0
2017-Feb-24 00:33N 49°50' W 124°32'1313.1
2017-Feb-23 23:34N 49°45' W 124°51'3 2.7
2017-Feb-23 22:28N 49°44' W 124°55'0 0.0
2017-Feb-23 21:32N 49°44' W 124°55'8 7.9
2017-Feb-23 20:33N 49°47' W 124°44'8 8.5
2017-Feb-23 19:33N 49°50' W 124°32'1010.2
2017-Feb-23 18:34N 49°46' W 124°47'6 6.0
2017-Feb-23 17:33N 49°44' W 124°55'1212.0
2017-Feb-23 16:33N 49°49' W 124°38'4 3.6
2017-Feb-23 15:33N 49°50' W 124°33'1515.0
2017-Feb-23 14:33N 49°45' W 124°55'1 0.5
2017-Feb-23 13:33N 49°44' W 124°55'0 0.0
2017-Feb-23 12:25N 49°44' W 124°55'0 0.0
2017-Feb-23 11:31N 49°44' W 124°55'0 0.0
2017-Feb-23 10:31N 49°44' W 124°55'0 0.0
2017-Feb-23 09:31N 49°44' W 124°55'0 0.0
2017-Feb-23 08:31N 49°44' W 124°55'0 0.0
2017-Feb-23 07:28N 49°44' W 124°55'0 0.0
2017-Feb-23 06:04N 49°44' W 124°55'5 9.8
2017-Feb-23 05:33N 49°46' W 124°48'1111.1
2017-Feb-23 04:33N 49°50' W 124°32'9 9.2
2017-Feb-23 03:33N 49°47' W 124°45'7 7.0
2017-Feb-23 02:33N 49°44' W 124°55'0 0.0
2017-Feb-23 01:13N 49°44' W 124°55'0 0.0
2017-Feb-23 00:25N 49°44' W 124°55'0 0.0
2017-Feb-22 23:31N 49°44' W 124°55'0 0.0
2017-Feb-22 22:25N 49°44' W 124°55'0 0.0
2017-Feb-22 21:25N 49°44' W 124°55'7 8.6
2017-Feb-22 20:33N 49°47' W 124°45'9 8.9
2017-Feb-22 19:34N 49°50' W 124°32'1110.6
2017-Feb-22 18:33N 49°47' W 124°47'6 5.6
2017-Feb-22 17:33N 49°44' W 124°55'1010.5
2017-Feb-22 16:33N 49°48' W 124°40'5 4.8
2017-Feb-22 15:33N 49°50' W 124°34'1414.0
2017-Feb-22 14:32N 49°45' W 124°54'1 0.8
2017-Feb-22 13:33N 49°44' W 124°55'0 0.0
2017-Feb-22 12:30N 49°44' W 124°55'0 0.0
2017-Feb-22 11:33N 49°44' W 124°55'0 0.0
2017-Feb-22 10:33N 49°44' W 124°55'0 0.0
2017-Feb-22 09:30N 49°44' W 124°55'0 0.0
2017-Feb-22 08:30N 49°44' W 124°55'0 0.0
2017-Feb-22 07:30N 49°44' W 124°55'0 0.0
2017-Feb-22 06:30N 49°44' W 124°55'5 5.2
2017-Feb-22 05:33N 49°46' W 124°48'1111.4
2017-Feb-22 04:34N 49°50' W 124°32'1313.4
2017-Feb-22 03:33N 49°45' W 124°51'3 2.8
2017-Feb-22 02:33N 49°44' W 124°55'1212.4
2017-Feb-22 01:33N 49°49' W 124°37'3 3.0
2017-Feb-22 00:33N 49°50' W 124°33'1312.9
2017-Feb-21 23:33N 49°45' W 124°52'2 2.5
2017-Feb-21 22:33N 49°44' W 124°55'0 0.0
2017-Feb-21 21:30N 49°44' W 124°55'5 5.8
2017-Feb-21 20:33N 49°47' W 124°48'1110.8
2017-Feb-21 19:33N 49°50' W 124°32'10 9.9
2017-Feb-21 18:33N 49°47' W 124°46'6 6.3
2017-Feb-21 17:33N 49°44' W 124°55'1010.0
2017-Feb-21 16:33N 49°48' W 124°41'6 5.8
2017-Feb-21 15:33N 49°50' W 124°33'1515.0
2017-Feb-21 14:33N 49°45' W 124°54'1 0.7
2017-Feb-21 13:33N 49°44' W 124°55'0 0.0
2017-Feb-21 12:31N 49°44' W 124°55'0 0.0
2017-Feb-21 11:25N 49°44' W 124°55'0 0.0
2017-Feb-21 07:04N 49°44' W 124°55'0 0.0
2017-Feb-21 06:31N 49°44' W 124°55'5 5.5
2017-Feb-21 05:33N 49°47' W 124°48'1111.0
2017-Feb-21 04:33N 49°50' W 124°32'1312.9
2017-Feb-21 03:33N 49°46' W 124°51'3 3.2
2017-Feb-21 02:33N 49°44' W 124°55'1312.6
2017-Feb-21 01:33N 49°49' W 124°37'3 2.6
2017-Feb-21 00:33N 49°50' W 124°34'1212.5
2017-Feb-20 23:33N 49°45' W 124°51'3 2.5
2017-Feb-20 22:28N 49°44' W 124°55'0 0.0
2017-Feb-20 21:28N 49°44' W 124°55'7 7.8
2017-Feb-20 20:33N 49°47' W 124°45'9 9.1
2017-Feb-20 19:33N 49°50' W 124°32'10 9.6
2017-Feb-20 18:33N 49°47' W 124°46'7 6.5
2017-Feb-20 17:33N 49°44' W 124°55'1211.9
2017-Feb-20 16:33N 49°49' W 124°38'3 2.8
2017-Feb-20 15:33N 49°50' W 124°35'1313.1
2017-Feb-20 14:33N 49°45' W 124°53'1 1.3
2017-Feb-20 13:29N 49°44' W 124°55'0 0.0
2017-Feb-20 12:29N 49°44' W 124°55'0 0.0
2017-Feb-20 11:05N 49°44' W 124°55'0 0.0
2017-Feb-20 10:29N 49°44' W 124°55'0 0.0
2017-Feb-20 09:05N 49°44' W 124°55'0 0.0
2017-Feb-20 08:29N 49°44' W 124°55'0 0.0
2017-Feb-20 07:32N 49°44' W 124°55'0 0.0
2017-Feb-20 06:32N 49°44' W 124°55'5 4.8
2017-Feb-20 05:33N 49°46' W 124°49'1211.6
2017-Feb-20 04:33N 49°50' W 124°32'1312.6
2017-Feb-20 03:33N 49°46' W 124°50'4 3.4
2017-Feb-20 02:30N 49°44' W 124°55'1212.7
2017-Feb-20 01:34N 49°49' W 124°38'4 3.6
2017-Feb-20 00:33N 49°50' W 124°33'1312.6
2017-Feb-19 23:33N 49°46' W 124°51'3 2.7
2017-Feb-19 22:25N 49°44' W 124°55'0 0.0
2017-Feb-19 21:07N 49°44' W 124°55'610.5
2017-Feb-19 20:33N 49°47' W 124°47'1010.4
2017-Feb-19 19:33N 49°50' W 124°32'10 9.8
2017-Feb-19 18:33N 49°47' W 124°46'6 5.9
2017-Feb-19 17:29N 49°44' W 124°55'1111.3
2017-Feb-19 16:33N 49°48' W 124°40'5 4.6
2017-Feb-19 15:33N 49°50' W 124°34'1413.6
2017-Feb-19 14:33N 49°45' W 124°53'1 1.4
2017-Feb-19 13:32N 49°44' W 124°55'5 0.6
2017-Feb-19 05:33N 49°46' W 124°48'1111.3
2017-Feb-19 04:33N 49°50' W 124°32'9 8.5
2017-Feb-19 03:33N 49°47' W 124°44'8 1.2
2017-Feb-18 21:14N 49°44' W 124°55'811.2
2017-Feb-18 20:33N 49°47' W 124°45'9 8.7
2017-Feb-18 19:33N 49°50' W 124°32'1010.1
2017-Feb-18 18:33N 49°46' W 124°46'6 6.2
2017-Feb-18 17:33N 49°44' W 124°55'1111.2
2017-Feb-18 16:33N 49°48' W 124°39'4 4.1
2017-Feb-18 15:33N 49°50' W 124°34'1313.4
2017-Feb-18 14:33N 49°45' W 124°53'2 1.8
2017-Feb-18 13:32N 49°44' W 124°55'0 0.0
2017-Feb-18 12:32N 49°44' W 124°55'0 0.0
2017-Feb-18 11:32N 49°44' W 124°55'0 0.0
2017-Feb-18 10:32N 49°44' W 124°55'0 0.0
2017-Feb-18 09:32N 49°44' W 124°55'0 0.0
2017-Feb-18 08:32N 49°44' W 124°55'0 0.0
2017-Feb-18 07:32N 49°44' W 124°55'0 0.0
2017-Feb-18 06:08N 49°44' W 124°55'610.4
2017-Feb-18 05:33N 49°47' W 124°47'1010.3
2017-Feb-18 04:33N 49°50' W 124°32'1413.5
2017-Feb-18 03:33N 49°45' W 124°52'3 2.6
2017-Feb-18 02:33N 49°44' W 124°55'1212.5
2017-Feb-18 01:33N 49°49' W 124°37'3 3.1
2017-Feb-18 00:33N 49°50' W 124°33'1313.4
2017-Feb-17 23:33N 49°45' W 124°52'2 1.8
2017-Feb-17 22:22N 49°44' W 124°55'0 0.0
2017-Feb-17 21:17N 49°44' W 124°55'810.7
2017-Feb-17 20:33N 49°47' W 124°44'8 8.4
2017-Feb-17 19:33N 49°50' W 124°32'10 9.9
2017-Feb-17 18:34N 49°47' W 124°46'6 6.4
2017-Feb-17 17:33N 49°44' W 124°55'1313.1
2017-Feb-17 16:33N 49°49' W 124°37'2 2.2
2017-Feb-17 15:33N 49°50' W 124°34'1413.4
2017-Feb-17 14:33N 49°45' W 124°53'2 1.6
2017-Feb-17 13:32N 49°44' W 124°55'0 0.0
2017-Feb-17 12:29N 49°44' W 124°55'0 0.0
2017-Feb-17 11:32N 49°44' W 124°55'0 0.0
2017-Feb-17 10:32N 49°44' W 124°55'0 0.0
2017-Feb-17 09:32N 49°44' W 124°55'0 0.0
2017-Feb-17 08:29N 49°44' W 124°55'0 0.0
2017-Feb-17 07:32N 49°44' W 124°55'0 0.0
2017-Feb-17 06:26N 49°44' W 124°55'6 7.2
2017-Feb-17 05:33N 49°47' W 124°47'10 9.9
2017-Feb-17 04:33N 49°50' W 124°32'1313.3
2017-Feb-17 03:33N 49°45' W 124°51'3 2.8
2017-Feb-17 02:33N 49°44' W 124°55'1212.1
2017-Feb-17 01:33N 49°49' W 124°38'4 3.6
2017-Feb-17 00:33N 49°50' W 124°33'1312.8
2017-Feb-16 23:33N 49°45' W 124°51'3 1.3
2017-Feb-16 21:15N 49°44' W 124°55'811.2
2017-Feb-16 20:33N 49°47' W 124°44'9 8.5
2017-Feb-16 19:33N 49°50' W 124°32'1010.4
2017-Feb-16 18:33N 49°47' W 124°47'6 5.9
2017-Feb-16 17:33N 49°44' W 124°55'1212.2
2017-Feb-16 16:33N 49°49' W 124°38'2 1.8
2017-Feb-16 15:33N 49°50' W 124°35'1413.6
2017-Feb-16 14:33N 49°45' W 124°55'0 0.3
2017-Feb-16 13:19N 49°44' W 124°55'0 0.0
2017-Feb-16 12:25N 49°44' W 124°55'0 0.0
2017-Feb-16 11:31N 49°44' W 124°55'0 0.0
2017-Feb-16 10:28N 49°44' W 124°55'0 0.0
2017-Feb-16 09:31N 49°44' W 124°55'0 0.0
2017-Feb-16 08:31N 49°44' W 124°55'  
Track history (hours):
 
Tides and Currents Weather Stations Pressure Air Temp Water Temp Dewpoint Dewpoint Depression Visibility Wind Speed Wind Dir Waves Ship Positions

Queen Of Burnaby

Last reported at 2017-Feb-26 07:29 UTC. Time now 2017-Feb-26 07:39 UTC.
Position N 49°44' W 124°55'.

Length 130 m; draft 4 m.

MMSI: 316001246.

Date/timePositionNaut miles runAvg speedWind from/ knotsBaromVisibWave heightAir tempDewpointWater temp
2017-Feb-26 07:29N 49°44' W 124°55'0 0.0
2017-Feb-26 06:29N 49°44' W 124°55'5 5.1
2017-Feb-26 05:33N 49°46' W 124°49'1111.5
2017-Feb-26 04:33N 49°50' W 124°32'9 8.5
2017-Feb-26 03:33N 49°47' W 124°44'8 7.6
2017-Feb-26 02:33N 49°44' W 124°55'0 0.0
2017-Feb-26 01:33N 49°44' W 124°55'0 0.0
2017-Feb-25 23:27N 49°44' W 124°55'0 0.0
2017-Feb-25 22:33N 49°44' W 124°55'0 0.0
2017-Feb-25 21:30N 49°44' W 124°55'7 7.7
2017-Feb-25 20:34N 49°47' W 124°45'9 8.8
2017-Feb-25 19:32N 49°50' W 124°32'1111.5
2017-Feb-25 18:33N 49°46' W 124°48'5 4.7
2017-Feb-25 17:30N 49°44' W 124°55'1111.3
2017-Feb-25 16:33N 49°48' W 124°40'5 4.7
2017-Feb-25 15:33N 49°50' W 124°33'1413.7
2017-Feb-25 14:33N 49°45' W 124°53'2 1.9
2017-Feb-25 13:33N 49°44' W 124°55'0 0.0
2017-Feb-25 12:33N 49°44' W 124°55'0 0.0
2017-Feb-25 11:33N 49°44' W 124°55'0 0.0
2017-Feb-25 10:30N 49°44' W 124°55'0 0.0
2017-Feb-25 09:33N 49°44' W 124°55'0 0.0
2017-Feb-25 08:33N 49°44' W 124°55'0 0.0
2017-Feb-25 07:33N 49°44' W 124°55'0 0.0
2017-Feb-25 06:30N 49°44' W 124°55'6 5.8
2017-Feb-25 05:33N 49°46' W 124°48'1110.7
2017-Feb-25 04:33N 49°50' W 124°32'1313.3
2017-Feb-25 03:33N 49°46' W 124°51'3 2.9
2017-Feb-25 02:33N 49°44' W 124°55'1312.7
2017-Feb-25 01:33N 49°49' W 124°37'3 2.9
2017-Feb-25 00:33N 49°50' W 124°33'1312.7
2017-Feb-24 23:33N 49°46' W 124°52'3 2.6
2017-Feb-24 22:29N 49°44' W 124°55'0 0.0
2017-Feb-24 21:32N 49°44' W 124°55'7 7.4
2017-Feb-24 20:33N 49°47' W 124°45'9 8.9
2017-Feb-24 19:33N 49°50' W 124°32'1010.5
2017-Feb-24 18:33N 49°47' W 124°47'6 5.8
2017-Feb-24 17:33N 49°44' W 124°55'1111.2
2017-Feb-24 16:33N 49°48' W 124°39'4 4.4
2017-Feb-24 15:33N 49°50' W 124°33'1413.9
2017-Feb-24 14:33N 49°45' W 124°53'2 1.5
2017-Feb-24 13:33N 49°44' W 124°55'0 0.0
2017-Feb-24 12:33N 49°44' W 124°55'0 0.0
2017-Feb-24 11:33N 49°44' W 124°55'0 0.0
2017-Feb-24 10:33N 49°44' W 124°55'0 0.0
2017-Feb-24 09:30N 49°44' W 124°55'0 0.0
2017-Feb-24 08:33N 49°44' W 124°55'0 0.0
2017-Feb-24 07:33N 49°44' W 124°55'0 0.0
2017-Feb-24 06:30N 49°44' W 124°55'5 5.7
2017-Feb-24 05:33N 49°46' W 124°48'1110.9
2017-Feb-24 04:33N 49°50' W 124°32'1313.3
2017-Feb-24 03:33N 49°45' W 124°51'3 2.9
2017-Feb-24 02:33N 49°44' W 124°55'1212.2
2017-Feb-24 01:33N 49°49' W 124°38'4 4.0
2017-Feb-24 00:33N 49°50' W 124°32'1313.1
2017-Feb-23 23:34N 49°45' W 124°51'3 2.7
2017-Feb-23 22:28N 49°44' W 124°55'0 0.0
2017-Feb-23 21:32N 49°44' W 124°55'8 7.9
2017-Feb-23 20:33N 49°47' W 124°44'8 8.5
2017-Feb-23 19:33N 49°50' W 124°32'1010.2
2017-Feb-23 18:34N 49°46' W 124°47'6 6.0
2017-Feb-23 17:33N 49°44' W 124°55'1212.0
2017-Feb-23 16:33N 49°49' W 124°38'4 3.6
2017-Feb-23 15:33N 49°50' W 124°33'1515.0
2017-Feb-23 14:33N 49°45' W 124°55'1 0.5
2017-Feb-23 13:33N 49°44' W 124°55'0 0.0
2017-Feb-23 12:25N 49°44' W 124°55'0 0.0
2017-Feb-23 11:31N 49°44' W 124°55'0 0.0
2017-Feb-23 10:31N 49°44' W 124°55'0 0.0
2017-Feb-23 09:31N 49°44' W 124°55'0 0.0
2017-Feb-23 08:31N 49°44' W 124°55'0 0.0
2017-Feb-23 07:28N 49°44' W 124°55'0 0.0
2017-Feb-23 06:04N 49°44' W 124°55'5 9.8
2017-Feb-23 05:33N 49°46' W 124°48'1111.1
2017-Feb-23 04:33N 49°50' W 124°32'9 9.2
2017-Feb-23 03:33N 49°47' W 124°45'7 7.0
2017-Feb-23 02:33N 49°44' W 124°55'0 0.0
2017-Feb-23 01:13N 49°44' W 124°55'0 0.0
2017-Feb-23 00:25N 49°44' W 124°55'0 0.0
2017-Feb-22 23:31N 49°44' W 124°55'0 0.0
2017-Feb-22 22:25N 49°44' W 124°55'0 0.0
2017-Feb-22 21:25N 49°44' W 124°55'7 8.6
2017-Feb-22 20:33N 49°47' W 124°45'9 8.9
2017-Feb-22 19:34N 49°50' W 124°32'1110.6
2017-Feb-22 18:33N 49°47' W 124°47'6 5.6
2017-Feb-22 17:33N 49°44' W 124°55'1010.5
2017-Feb-22 16:33N 49°48' W 124°40'5 4.8
2017-Feb-22 15:33N 49°50' W 124°34'1414.0
2017-Feb-22 14:32N 49°45' W 124°54'1 0.8
2017-Feb-22 13:33N 49°44' W 124°55'0 0.0
2017-Feb-22 12:30N 49°44' W 124°55'0 0.0
2017-Feb-22 11:33N 49°44' W 124°55'0 0.0
2017-Feb-22 10:33N 49°44' W 124°55'0 0.0
2017-Feb-22 09:30N 49°44' W 124°55'0 0.0
2017-Feb-22 08:30N 49°44' W 124°55'0 0.0
2017-Feb-22 07:30N 49°44' W 124°55'0 0.0
2017-Feb-22 06:30N 49°44' W 124°55'5 5.2
2017-Feb-22 05:33N 49°46' W 124°48'1111.4
2017-Feb-22 04:34N 49°50' W 124°32'1313.4
2017-Feb-22 03:33N 49°45' W 124°51'3 2.8
2017-Feb-22 02:33N 49°44' W 124°55'1212.4
2017-Feb-22 01:33N 49°49' W 124°37'3 3.0
2017-Feb-22 00:33N 49°50' W 124°33'1312.9
2017-Feb-21 23:33N 49°45' W 124°52'2 2.5
2017-Feb-21 22:33N 49°44' W 124°55'0 0.0
2017-Feb-21 21:30N 49°44' W 124°55'5 5.8
2017-Feb-21 20:33N 49°47' W 124°48'1110.8
2017-Feb-21 19:33N 49°50' W 124°32'10 9.9
2017-Feb-21 18:33N 49°47' W 124°46'6 6.3
2017-Feb-21 17:33N 49°44' W 124°55'1010.0
2017-Feb-21 16:33N 49°48' W 124°41'6 5.8
2017-Feb-21 15:33N 49°50' W 124°33'1515.0
2017-Feb-21 14:33N 49°45' W 124°54'1 0.7
2017-Feb-21 13:33N 49°44' W 124°55'0 0.0
2017-Feb-21 12:31N 49°44' W 124°55'0 0.0
2017-Feb-21 11:25N 49°44' W 124°55'0 0.0
2017-Feb-21 07:04N 49°44' W 124°55'0 0.0
2017-Feb-21 06:31N 49°44' W 124°55'5 5.5
2017-Feb-21 05:33N 49°47' W 124°48'1111.0
2017-Feb-21 04:33N 49°50' W 124°32'1312.9
2017-Feb-21 03:33N 49°46' W 124°51'3 3.2
2017-Feb-21 02:33N 49°44' W 124°55'1312.6
2017-Feb-21 01:33N 49°49' W 124°37'3 2.6
2017-Feb-21 00:33N 49°50' W 124°34'1212.5
2017-Feb-20 23:33N 49°45' W 124°51'3 2.5
2017-Feb-20 22:28N 49°44' W 124°55'0 0.0
2017-Feb-20 21:28N 49°44' W 124°55'7 7.8
2017-Feb-20 20:33N 49°47' W 124°45'9 9.1
2017-Feb-20 19:33N 49°50' W 124°32'10 9.6
2017-Feb-20 18:33N 49°47' W 124°46'7 6.5
2017-Feb-20 17:33N 49°44' W 124°55'1211.9
2017-Feb-20 16:33N 49°49' W 124°38'3 2.8
2017-Feb-20 15:33N 49°50' W 124°35'1313.1
2017-Feb-20 14:33N 49°45' W 124°53'1 1.3
2017-Feb-20 13:29N 49°44' W 124°55'0 0.0
2017-Feb-20 12:29N 49°44' W 124°55'0 0.0
2017-Feb-20 11:05N 49°44' W 124°55'0 0.0
2017-Feb-20 10:29N 49°44' W 124°55'0 0.0
2017-Feb-20 09:05N 49°44' W 124°55'0 0.0
2017-Feb-20 08:29N 49°44' W 124°55'0 0.0
2017-Feb-20 07:32N 49°44' W 124°55'0 0.0
2017-Feb-20 06:32N 49°44' W 124°55'5 4.8
2017-Feb-20 05:33N 49°46' W 124°49'1211.6
2017-Feb-20 04:33N 49°50' W 124°32'1312.6
2017-Feb-20 03:33N 49°46' W 124°50'4 3.4
2017-Feb-20 02:30N 49°44' W 124°55'1212.7
2017-Feb-20 01:34N 49°49' W 124°38'4 3.6
2017-Feb-20 00:33N 49°50' W 124°33'1312.6
2017-Feb-19 23:33N 49°46' W 124°51'3 2.7
2017-Feb-19 22:25N 49°44' W 124°55'0 0.0
2017-Feb-19 21:07N 49°44' W 124°55'610.5
2017-Feb-19 20:33N 49°47' W 124°47'1010.4
2017-Feb-19 19:33N 49°50' W 124°32'10 9.8
2017-Feb-19 18:33N 49°47' W 124°46'6 5.9
2017-Feb-19 17:29N 49°44' W 124°55'1111.3
2017-Feb-19 16:33N 49°48' W 124°40'5 4.6
2017-Feb-19 15:33N 49°50' W 124°34'1413.6
2017-Feb-19 14:33N 49°45' W 124°53'1 1.4
2017-Feb-19 13:32N 49°44' W 124°55'5 0.6
2017-Feb-19 05:33N 49°46' W 124°48'1111.3
2017-Feb-19 04:33N 49°50' W 124°32'9 8.5
2017-Feb-19 03:33N 49°47' W 124°44'8 1.2
2017-Feb-18 21:14N 49°44' W 124°55'811.2
2017-Feb-18 20:33N 49°47' W 124°45'9 8.7
2017-Feb-18 19:33N 49°50' W 124°32'1010.1
2017-Feb-18 18:33N 49°46' W 124°46'6 6.2
2017-Feb-18 17:33N 49°44' W 124°55'1111.2
2017-Feb-18 16:33N 49°48' W 124°39'4 4.1
2017-Feb-18 15:33N 49°50' W 124°34'1313.4
2017-Feb-18 14:33N 49°45' W 124°53'2 1.8
2017-Feb-18 13:32N 49°44' W 124°55'0 0.0
2017-Feb-18 12:32N 49°44' W 124°55'0 0.0
2017-Feb-18 11:32N 49°44' W 124°55'0 0.0
2017-Feb-18 10:32N 49°44' W 124°55'0 0.0
2017-Feb-18 09:32N 49°44' W 124°55'0 0.0
2017-Feb-18 08:32N 49°44' W 124°55'0 0.0
2017-Feb-18 07:32N 49°44' W 124°55'0 0.0
2017-Feb-18 06:08N 49°44' W 124°55'610.4
2017-Feb-18 05:33N 49°47' W 124°47'1010.3
2017-Feb-18 04:33N 49°50' W 124°32'1413.5
2017-Feb-18 03:33N 49°45' W 124°52'3 2.6
2017-Feb-18 02:33N 49°44' W 124°55'1212.5
2017-Feb-18 01:33N 49°49' W 124°37'3 3.1
2017-Feb-18 00:33N 49°50' W 124°33'1313.4
2017-Feb-17 23:33N 49°45' W 124°52'2 1.8
2017-Feb-17 22:22N 49°44' W 124°55'0 0.0
2017-Feb-17 21:17N 49°44' W 124°55'810.7
2017-Feb-17 20:33N 49°47' W 124°44'8 8.4
2017-Feb-17 19:33N 49°50' W 124°32'10 9.9
2017-Feb-17 18:34N 49°47' W 124°46'6 6.4
2017-Feb-17 17:33N 49°44' W 124°55'1313.1
2017-Feb-17 16:33N 49°49' W 124°37'2 2.2
2017-Feb-17 15:33N 49°50' W 124°34'1413.4
2017-Feb-17 14:33N 49°45' W 124°53'2 1.6
2017-Feb-17 13:32N 49°44' W 124°55'0 0.0
2017-Feb-17 12:29N 49°44' W 124°55'0 0.0
2017-Feb-17 11:32N 49°44' W 124°55'0 0.0
2017-Feb-17 10:32N 49°44' W 124°55'0 0.0
2017-Feb-17 09:32N 49°44' W 124°55'0 0.0
2017-Feb-17 08:29N 49°44' W 124°55'0 0.0
2017-Feb-17 07:32N 49°44' W 124°55'0 0.0
2017-Feb-17 06:26N 49°44' W 124°55'6 7.2
2017-Feb-17 05:33N 49°47' W 124°47'10 9.9
2017-Feb-17 04:33N 49°50' W 124°32'1313.3
2017-Feb-17 03:33N 49°45' W 124°51'3 2.8
2017-Feb-17 02:33N 49°44' W 124°55'1212.1
2017-Feb-17 01:33N 49°49' W 124°38'4 3.6
2017-Feb-17 00:33N 49°50' W 124°33'1312.8
2017-Feb-16 23:33N 49°45' W 124°51'3 1.3
2017-Feb-16 21:15N 49°44' W 124°55'811.2
2017-Feb-16 20:33N 49°47' W 124°44'9 8.5
2017-Feb-16 19:33N 49°50' W 124°32'1010.4
2017-Feb-16 18:33N 49°47' W 124°47'6 5.9
2017-Feb-16 17:33N 49°44' W 124°55'1212.2
2017-Feb-16 16:33N 49°49' W 124°38'2 1.8
2017-Feb-16 15:33N 49°50' W 124°35'1413.6
2017-Feb-16 14:33N 49°45' W 124°55'0 0.3
2017-Feb-16 13:19N 49°44' W 124°55'0 0.0
2017-Feb-16 12:25N 49°44' W 124°55'0 0.0
2017-Feb-16 11:31N 49°44' W 124°55'0 0.0
2017-Feb-16 10:28N 49°44' W 124°55'0 0.0
2017-Feb-16 09:31N 49°44' W 124°55'0 0.0
2017-Feb-16 08:31N 49°44' W 124°55'  

Dump ship's entire track history